SBSN/STM METAR and TAF weather

Enter ICAO airport designator
Station Type Date Time Source
SBSN METAR 2024/06/15 22:00 UTC NOAA

SBSN 152200Z 10004KT 9999 FEW016 FEW021TCU 28/25 Q1011


Station Type Date Time Source
SBSN Decoded METAR 2024/06/15 22:00 UTC NOAA

Santarem-Aeroporto, Brazil (SBSN) 02-26S 054-43W 72M
Jun 15, 2024 - 06:00 PM EDT / 2024.06.15 2200 UTC
Wind: from the E (100 degrees) at 5 MPH (4 KT):0
Visibility: greater than 7 mile(s):0
Sky conditions: mostly clear
Weather: Towering cumulus clouds observed
Temperature: 82 F (28 C)
Dew Point: 77 F (25 C)
Relative Humidity: 83%
Pressure (altimeter): 29.85 in. Hg (1011 hPa)
ob: SBSN 152200Z 10004KT 9999 FEW016 FEW021TCU 28/25 Q1011
cycle: 22

Station Type Date Time Source
SBSN TAF 2024/06/15 18:48 UTC NOAA